Time;durP1;ratioP1;P1;durP2;ratioP2;P2;SDS_P1;SDS_P2;PMS_P1;PMS_P2;Temp;Humidity;BMP_temperature;BMP_pressure;BME280_temperature;BME280_humidity;BME280_pressure;Samples;Min_cycle;Max_cycle;Signal;HPM_P1;HPM_P2
2022/05/08 00:01:58;;;;;;;17.00;12.90;;;13.30;99.90;;;;;;5018721;28;20482;-72
2022/05/08 00:04:25;;;;;;;15.27;12.70;;;13.30;99.90;;;;;;5014817;28;20488;-72
2022/05/08 00:06:52;;;;;;;16.50;11.87;;;13.30;99.90;;;;;;5013934;28;20450;-72
2022/05/08 00:09:18;;;;;;;16.03;12.30;;;13.20;99.90;;;;;;5015177;28;21002;-72
2022/05/08 00:11:45;;;;;;;16.70;12.53;;;13.20;99.90;;;;;;5014040;28;20482;-72
2022/05/08 00:14:13;;;;;;;18.17;12.37;;;13.20;99.90;;;;;;5017797;28;20503;-72
2022/05/08 00:16:40;;;;;;;17.00;13.47;;;13.20;99.90;;;;;;5019887;28;20458;-72
2022/05/08 00:19:06;;;;;;;16.27;12.60;;;13.20;99.90;;;;;;5013918;28;20447;-72
2022/05/08 00:21:33;;;;;;;18.13;13.50;;;13.20;99.90;;;;;;5021399;28;20469;-72
2022/05/08 00:24:00;;;;;;;18.70;13.40;;;13.20;99.90;;;;;;5023582;28;20450;-72
2022/05/08 00:26:26;;;;;;;17.93;12.77;;;13.20;99.90;;;;;;5028713;28;20986;-72
2022/05/08 00:28:53;;;;;;;21.83;12.90;;;13.20;99.90;;;;;;5013503;28;20486;-72
2022/05/08 00:31:21;;;;;;;18.23;13.20;;;13.10;99.90;;;;;;5015047;28;20478;-72
2022/05/08 00:33:47;;;;;;;18.60;13.30;;;13.10;99.90;;;;;;5013652;28;20477;-72
2022/05/08 00:36:14;;;;;;;16.20;12.17;;;13.10;99.90;;;;;;5014267;28;20796;-72
2022/05/08 00:38:41;;;;;;;25.70;14.40;;;13.10;99.90;;;;;;5014063;28;20497;-72
2022/05/08 00:41:08;;;;;;;22.83;13.33;;;13.10;99.90;;;;;;5013663;28;20478;-72
2022/05/08 00:43:38;;;;;;;18.70;13.20;;;13.10;99.90;;;;;;5023644;28;20514;-72
2022/05/08 00:46:06;;;;;;;19.13;14.13;;;13.00;99.90;;;;;;5013797;28;20477;-72
2022/05/08 00:48:35;;;;;;;19.00;13.50;;;13.00;99.90;;;;;;5014493;28;20946;-72
2022/05/08 00:51:04;;;;;;;17.73;13.10;;;12.90;99.90;;;;;;5013300;28;20474;-72
2022/05/08 00:53:35;;;;;;;18.40;13.30;;;12.90;99.90;;;;;;5025396;28;20504;-72
2022/05/08 00:56:04;;;;;;;16.67;13.50;;;12.90;99.90;;;;;;5027135;28;20911;-72
2022/05/08 00:58:31;;;;;;;16.03;12.70;;;12.90;99.90;;;;;;5014587;28;20491;-72
2022/05/08 01:00:58;;;;;;;18.47;14.03;;;12.90;99.90;;;;;;5022720;28;20473;-72
2022/05/08 01:03:24;;;;;;;21.90;14.30;;;12.90;99.90;;;;;;5025475;28;20480;-72
2022/05/08 01:05:55;;;;;;;24.83;12.87;;;12.80;99.90;;;;;;5027678;28;20483;-72
2022/05/08 01:08:23;;;;;;;20.90;13.40;;;12.90;99.90;;;;;;5025894;28;20954;-72
2022/05/08 01:10:50;;;;;;;17.20;14.37;;;12.80;99.90;;;;;;5026650;28;20477;-72
2022/05/08 01:13:17;;;;;;;19.73;14.00;;;12.80;99.90;;;;;;5015586;28;20550;-72
2022/05/08 01:15:45;;;;;;;25.33;15.03;;;12.80;99.90;;;;;;5019865;28;20445;-72
2022/05/08 01:18:13;;;;;;;20.97;14.70;;;12.80;99.90;;;;;;5014978;28;20451;-72
2022/05/08 01:20:40;;;;;;;20.60;14.73;;;12.80;99.90;;;;;;5024812;28;20831;-72
2022/05/08 01:23:09;;;;;;;20.37;14.20;;;12.80;99.90;;;;;;5031101;28;21061;-72
2022/05/08 01:25:44;;;;;;;21.23;13.63;;;12.80;99.90;;;;;;5028295;28;20500;-72
2022/05/08 01:28:12;;;;;;;20.43;14.50;;;12.70;99.90;;;;;;5028199;28;20453;-72
2022/05/08 01:30:40;;;;;;;19.53;14.40;;;12.70;99.90;;;;;;5021996;28;20496;-72
2022/05/08 01:33:07;;;;;;;19.57;14.60;;;12.70;99.90;;;;;;5028895;28;20513;-72
2022/05/08 01:35:33;;;;;;;20.17;15.40;;;12.70;99.90;;;;;;5024155;28;20950;-72
2022/05/08 01:38:00;;;;;;;19.50;14.63;;;12.60;99.90;;;;;;5017128;28;20462;-72
2022/05/08 01:40:30;;;;;;;21.50;14.53;;;12.60;99.90;;;;;;5028760;28;20574;-72
2022/05/08 01:42:56;;;;;;;19.07;15.00;;;12.60;99.90;;;;;;5028994;28;20488;-72
2022/05/08 01:45:23;;;;;;;20.27;15.13;;;12.60;99.90;;;;;;5024733;28;20457;-72
2022/05/08 01:50:34;;;;;;;20.00;14.93;;;12.50;99.90;;;;;;5029350;28;20484;-72
2022/05/08 01:53:01;;;;;;;19.90;15.73;;;12.50;99.90;;;;;;5030811;28;21199;-72
2022/05/08 01:55:29;;;;;;;24.93;15.47;;;12.40;99.90;;;;;;5020717;28;20886;-72
2022/05/08 01:57:56;;;;;;;20.53;15.53;;;12.40;99.90;;;;;;5016695;28;20449;-72
2022/05/08 02:00:23;;;;;;;23.20;16.00;;;12.40;99.90;;;;;;5023906;28;20523;-72
2022/05/08 02:02:50;;;;;;;22.50;16.60;;;12.40;99.90;;;;;;5030766;28;20453;-72
2022/05/08 02:05:18;;;;;;;22.37;16.60;;;12.30;99.90;;;;;;5028965;28;20500;-72
2022/05/08 02:07:46;;;;;;;21.00;15.17;;;12.30;99.90;;;;;;5016526;28;20504;-72
2022/05/08 02:10:13;;;;;;;24.20;14.90;;;12.30;99.90;;;;;;5016341;28;21002;-72
2022/05/08 02:12:42;;;;;;;19.17;15.03;;;12.20;99.90;;;;;;5017891;28;20511;-72
2022/05/08 02:15:10;;;;;;;24.17;16.10;;;12.20;99.90;;;;;;5030154;28;20474;-72
2022/05/08 02:17:38;;;;;;;21.80;16.37;;;12.20;99.90;;;;;;5021351;28;20449;-72
2022/05/08 02:20:06;;;;;;;23.90;16.90;;;12.20;99.90;;;;;;5029170;28;20511;-72
2022/05/08 02:22:33;;;;;;;25.10;16.53;;;12.10;99.90;;;;;;5015987;28;20449;-72
2022/05/08 02:24:59;;;;;;;25.10;17.20;;;12.10;99.90;;;;;;5013955;28;20458;-72
2022/05/08 02:27:26;;;;;;;22.17;16.63;;;12.10;99.90;;;;;;5021393;28;20457;-72
2022/05/08 02:29:54;;;;;;;24.67;17.00;;;12.00;99.90;;;;;;5018776;28;20532;-72
2022/05/08 02:32:21;;;;;;;24.10;17.63;;;12.00;99.90;;;;;;5015445;28;20990;-72
2022/05/08 02:34:47;;;;;;;22.33;16.60;;;11.90;99.90;;;;;;5014287;28;20454;-72
2022/05/08 02:37:14;;;;;;;22.43;16.57;;;11.90;99.90;;;;;;5015004;28;20531;-72
2022/05/08 02:39:41;;;;;;;26.40;16.73;;;11.80;99.90;;;;;;5014850;28;20868;-72
2022/05/08 02:42:07;;;;;;;27.90;17.83;;;11.80;99.90;;;;;;5014529;28;21010;-72
2022/05/08 02:44:34;;;;;;;26.20;17.67;;;11.80;99.90;;;;;;5031961;28;21023;-72
2022/05/08 02:47:02;;;;;;;25.90;16.93;;;11.70;99.90;;;;;;5021955;28;20458;-72
2022/05/08 02:49:29;;;;;;;24.80;16.43;;;11.70;99.90;;;;;;5015405;28;20540;-72
2022/05/08 02:51:55;;;;;;;21.73;17.27;;;11.70;99.90;;;;;;5014761;28;20482;-72
2022/05/08 02:54:22;;;;;;;24.00;17.00;;;11.70;99.90;;;;;;5014177;28;20500;-72
2022/05/08 02:59:33;;;;;;;26.03;17.33;;;11.60;99.90;;;;;;5027378;28;20434;-72
2022/05/08 03:01:59;;;;;;;29.57;16.93;;;11.60;99.90;;;;;;5023473;28;20852;-72
2022/05/08 03:04:27;;;;;;;25.00;16.93;;;11.50;99.90;;;;;;5014697;28;20975;-72
2022/05/08 03:06:55;;;;;;;21.47;16.57;;;11.50;99.90;;;;;;5014474;28;20462;-72
2022/05/08 03:09:21;;;;;;;22.83;17.90;;;11.50;99.90;;;;;;5015249;28;20570;-72
2022/05/08 03:11:48;;;;;;;21.87;15.60;;;11.50;99.90;;;;;;4979169;28;1025124;-72
2022/05/08 03:14:15;;;;;;;26.90;16.87;;;11.60;99.90;;;;;;5020434;28;20252;-72
2022/05/08 03:16:41;;;;;;;24.00;16.43;;;11.60;99.90;;;;;;5015523;28;20455;-72
2022/05/08 03:19:08;;;;;;;25.27;17.50;;;11.60;99.90;;;;;;5025682;28;20454;-72
2022/05/08 03:21:37;;;;;;;31.20;16.50;;;11.60;99.90;;;;;;5028392;28;20907;-72
2022/05/08 03:24:05;;;;;;;25.10;16.57;;;11.50;99.90;;;;;;5028751;28;20460;-72
2022/05/08 03:26:31;;;;;;;26.40;17.83;;;11.50;99.90;;;;;;5023923;28;20454;-72
2022/05/08 03:28:58;;;;;;;26.93;17.87;;;11.50;99.90;;;;;;5019641;28;20504;-72
2022/05/08 03:31:25;;;;;;;25.70;16.57;;;11.50;99.90;;;;;;5016126;28;20544;-72
2022/05/08 03:33:51;;;;;;;27.80;19.23;;;11.50;99.90;;;;;;5014227;28;20458;-72
2022/05/08 03:36:18;;;;;;;29.00;17.87;;;11.40;99.90;;;;;;5015635;28;20672;-72
2022/05/08 03:38:47;;;;;;;28.93;18.80;;;11.40;99.90;;;;;;5014856;28;20458;-72
2022/05/08 03:41:15;;;;;;;27.07;17.67;;;11.40;99.90;;;;;;5014274;28;21270;-72
2022/05/08 03:43:42;;;;;;;26.70;17.80;;;11.40;99.90;;;;;;5016659;28;20972;-72
2022/05/08 03:46:09;;;;;;;26.20;18.50;;;11.40;99.90;;;;;;5028761;28;20460;-72
2022/05/08 03:48:36;;;;;;;24.77;17.70;;;11.40;99.90;;;;;;5027411;28;20454;-72
2022/05/08 03:51:03;;;;;;;28.20;18.60;;;11.40;99.90;;;;;;5028632;28;20577;-72
2022/05/08 03:53:29;;;;;;;25.40;18.67;;;11.30;99.90;;;;;;5026516;28;20449;-72
2022/05/08 03:55:57;;;;;;;28.67;20.10;;;11.30;99.90;;;;;;5028589;28;20942;-72
2022/05/08 03:58:24;;;;;;;29.30;19.43;;;11.30;99.90;;;;;;5022809;28;20449;-72
2022/05/08 04:00:51;;;;;;;26.10;18.90;;;11.30;99.90;;;;;;5014056;28;20480;-72
2022/05/08 04:03:17;;;;;;;28.97;19.47;;;11.30;99.90;;;;;;5014558;28;20446;-72
2022/05/08 04:05:44;;;;;;;30.63;20.57;;;11.30;99.90;;;;;;5014293;28;20889;-72
2022/05/08 04:08:11;;;;;;;33.23;20.10;;;11.30;99.90;;;;;;5014059;28;20994;-72
2022/05/08 04:10:37;;;;;;;38.13;19.80;;;11.20;99.90;;;;;;5015056;28;20543;-73
2022/05/08 04:13:05;;;;;;;28.03;19.10;;;11.20;99.90;;;;;;5019684;28;20488;-72
2022/05/08 04:18:16;;;;;;;32.00;19.70;;;11.20;99.90;;;;;;5014756;28;20475;-72
2022/05/08 04:20:43;;;;;;;30.53;20.17;;;11.20;99.90;;;;;;5021935;28;20473;-72
2022/05/08 04:25:54;;;;;;;30.93;20.07;;;11.20;99.90;;;;;;5027384;28;20464;-72
2022/05/08 04:28:22;;;;;;;28.60;19.60;;;11.20;99.90;;;;;;5016823;28;20512;-72
2022/05/08 04:30:50;;;;;;;27.97;19.43;;;11.10;99.90;;;;;;5013497;28;20540;-72
2022/05/08 04:33:16;;;;;;;27.57;19.27;;;11.10;99.90;;;;;;5024097;28;20461;-72
2022/05/08 04:35:43;;;;;;;26.10;19.63;;;11.10;99.90;;;;;;5027667;28;20457;-72
2022/05/08 04:38:11;;;;;;;32.00;21.07;;;11.20;99.90;;;;;;5027681;28;20918;-72
2022/05/08 04:40:38;;;;;;;31.40;19.47;;;11.20;99.90;;;;;;5015060;28;20465;-72
2022/05/08 04:43:05;;;;;;;31.43;19.93;;;11.20;99.90;;;;;;5020620;28;20508;-72
2022/05/08 04:45:33;;;;;;;32.33;21.17;;;11.20;99.90;;;;;;5025756;28;20446;-72
2022/05/08 04:47:59;;;;;;;31.90;19.23;;;11.30;99.90;;;;;;5028093;28;20461;-72
2022/05/08 04:50:26;;;;;;;32.43;19.50;;;11.30;99.90;;;;;;5025867;28;20485;-72
2022/05/08 04:52:53;;;;;;;30.77;21.10;;;11.40;99.90;;;;;;5027486;28;20488;-72
2022/05/08 04:55:19;;;;;;;33.33;21.00;;;11.40;99.90;;;;;;5023574;28;20509;-72
2022/05/08 04:57:46;;;;;;;29.00;20.47;;;11.50;99.90;;;;;;5016853;28;20508;-72
2022/05/08 05:00:14;;;;;;;30.73;19.30;;;11.50;99.90;;;;;;5015005;28;20520;-72
2022/05/08 05:02:44;;;;;;;26.77;19.03;;;11.50;99.90;;;;;;5013658;28;20445;-72
2022/05/08 05:05:10;;;;;;;28.87;19.53;;;11.50;99.90;;;;;;5012622;28;20457;-72
2022/05/08 05:07:40;;;;;;;27.70;20.10;;;11.60;99.90;;;;;;5026526;28;20454;-72
2022/05/08 05:10:08;;;;;;;28.20;19.53;;;11.60;99.90;;;;;;5027061;28;20568;-72
2022/05/08 05:12:34;;;;;;;30.03;20.13;;;11.60;99.90;;;;;;5014451;28;20890;-72
2022/05/08 05:15:02;;;;;;;34.10;20.33;;;11.70;99.90;;;;;;5027851;28;20512;-72
2022/05/08 05:17:28;;;;;;;27.67;20.83;;;11.70;99.90;;;;;;5014366;28;20457;-72
2022/05/08 05:19:56;;;;;;;32.83;22.90;;;11.80;99.90;;;;;;5017618;28;20523;-72
2022/05/08 05:22:23;;;;;;;31.50;20.63;;;11.80;99.90;;;;;;5018994;28;20505;-72
2022/05/08 05:24:50;;;;;;;29.73;19.73;;;11.90;99.90;;;;;;5026714;28;20746;-70
2022/05/08 05:27:17;;;;;;;39.23;21.03;;;11.90;99.90;;;;;;5024987;28;20465;-70
2022/05/08 05:29:43;;;;;;;33.40;20.23;;;11.90;99.90;;;;;;5026469;28;20491;-70
2022/05/08 05:32:10;;;;;;;29.20;20.93;;;12.00;99.90;;;;;;5013022;28;20828;-69
2022/05/08 05:34:37;;;;;;;34.40;22.00;;;12.00;99.90;;;;;;5025686;28;20820;-69
2022/05/08 05:37:06;;;;;;;33.77;20.43;;;12.10;99.90;;;;;;5018183;28;20454;-70
2022/05/08 05:39:32;;;;;;;33.63;20.53;;;12.20;99.90;;;;;;5019397;28;20454;-70
2022/05/08 05:41:59;;;;;;;32.67;21.07;;;12.20;99.90;;;;;;5012771;28;20923;-70
2022/05/08 05:44:26;;;;;;;30.77;21.00;;;12.30;99.90;;;;;;5014261;28;20890;-70
2022/05/08 05:49:38;;;;;;;35.40;21.07;;;12.40;99.90;;;;;;5025928;28;21230;-70
2022/05/08 05:52:07;;;;;;;29.27;20.33;;;12.50;99.90;;;;;;5026983;28;20515;-70
2022/05/08 05:54:34;;;;;;;30.43;20.10;;;12.60;99.90;;;;;;5013465;28;20548;-70
2022/05/08 05:57:02;;;;;;;29.70;21.07;;;12.80;99.90;;;;;;5012593;28;20458;-70
2022/05/08 05:59:28;;;;;;;33.60;20.77;;;13.00;99.90;;;;;;5018081;28;20449;-70
2022/05/08 06:01:55;;;;;;;30.47;19.80;;;13.30;99.90;;;;;;5026477;28;20465;-70
2022/05/08 06:04:22;;;;;;;28.17;19.70;;;13.60;99.90;;;;;;5024682;28;20950;-70
2022/05/08 06:06:48;;;;;;;26.23;18.30;;;13.90;99.90;;;;;;5018905;28;20506;-70
2022/05/08 06:09:16;;;;;;;27.03;19.00;;;14.20;99.90;;;;;;5033724;28;20461;-70
2022/05/08 06:11:44;;;;;;;28.67;18.70;;;14.50;99.90;;;;;;5023394;28;20547;-69
2022/05/08 06:14:10;;;;;;;29.00;19.07;;;14.80;99.90;;;;;;5028604;28;20587;-70
2022/05/08 06:16:37;;;;;;;26.03;17.47;;;15.00;99.90;;;;;;5033752;28;20458;-70
2022/05/08 06:19:05;;;;;;;24.47;18.93;;;15.20;99.90;;;;;;5033282;28;20458;-71
2022/05/08 06:21:32;;;;;;;27.67;17.90;;;15.30;99.90;;;;;;5026701;28;20816;-70
2022/05/08 06:23:59;;;;;;;27.83;17.87;;;15.50;99.90;;;;;;5013181;28;20476;-70
2022/05/08 06:26:27;;;;;;;24.47;17.10;;;15.70;99.90;;;;;;5024096;28;20987;-70
2022/05/08 06:28:55;;;;;;;24.77;18.07;;;15.90;99.90;;;;;;5033416;28;20499;-72
2022/05/08 06:31:21;;;;;;;30.10;18.50;;;16.10;99.90;;;;;;5033520;28;20489;-73
2022/05/08 06:33:49;;;;;;;25.17;19.30;;;16.00;99.90;;;;;;5032662;28;20449;-73
2022/05/08 06:36:16;;;;;;;27.53;18.70;;;15.90;99.90;;;;;;5033360;28;20939;-72
2022/05/08 06:38:42;;;;;;;28.13;18.40;;;15.90;99.90;;;;;;5032265;28;20457;-72
2022/05/08 06:41:09;;;;;;;25.53;18.00;;;15.90;99.90;;;;;;5033205;28;20524;-73
2022/05/08 06:43:39;;;;;;;28.57;18.53;;;15.80;99.90;;;;;;5031324;28;20884;-72
2022/05/08 06:46:06;;;;;;;23.80;17.57;;;15.80;99.90;;;;;;5014494;28;20528;-72
2022/05/08 06:48:33;;;;;;;25.87;17.80;;;15.80;99.90;;;;;;5013044;28;20454;-72
2022/05/08 06:51:00;;;;;;;23.57;17.03;;;15.90;99.90;;;;;;5013445;28;20544;-72
2022/05/08 06:53:26;;;;;;;25.77;16.67;;;16.00;99.90;;;;;;5012216;28;20999;-71
2022/05/08 06:55:53;;;;;;;24.30;17.10;;;16.00;99.90;;;;;;5013455;28;20523;-72
2022/05/08 06:58:21;;;;;;;26.00;16.43;;;16.10;99.90;;;;;;5013083;28;20508;-73
2022/05/08 07:03:33;;;;;;;22.23;15.60;;;16.40;99.90;;;;;;5032310;28;20412;-73
2022/05/08 07:06:00;;;;;;;25.83;16.83;;;16.50;99.90;;;;;;5033000;28;20862;-73
2022/05/08 07:08:26;;;;;;;21.33;16.20;;;16.50;99.90;;;;;;5032301;28;20564;-73
2022/05/08 07:10:53;;;;;;;27.80;16.83;;;16.70;99.90;;;;;;5032162;28;20496;-73
2022/05/08 07:13:22;;;;;;;24.63;16.00;;;16.90;99.90;;;;;;5022517;28;20894;-74
2022/05/08 07:15:50;;;;;;;25.03;15.30;;;17.00;99.90;;;;;;5012074;28;20433;-73
2022/05/08 07:18:18;;;;;;;25.73;16.20;;;17.30;99.90;;;;;;5011984;28;20436;-73
2022/05/08 07:20:44;;;;;;;24.17;15.70;;;17.40;99.90;;;;;;5023727;28;20477;-72
2022/05/08 07:23:11;;;;;;;18.00;14.60;;;17.50;99.90;;;;;;5031579;28;20514;-72
2022/05/08 07:25:39;;;;;;;18.13;14.47;;;17.60;99.90;;;;;;5030387;28;20479;-71
2022/05/08 07:28:06;;;;;;;19.47;14.53;;;17.90;99.90;;;;;;5032014;28;20464;-72
2022/05/08 07:30:33;;;;;;;18.67;13.47;;;18.10;99.90;;;;;;5020682;28;20444;-73
2022/05/08 07:33:01;;;;;;;19.60;15.60;;;18.20;99.90;;;;;;5011887;28;20919;-73
2022/05/08 07:38:12;;;;;;;20.60;14.30;;;18.00;99.90;;;;;;5034923;28;20957;-71
2022/05/08 07:40:42;;;;;;;17.53;14.03;;;18.20;99.90;;;;;;5037131;28;20446;-71
2022/05/08 07:43:09;;;;;;;19.00;14.87;;;18.30;99.90;;;;;;5031341;28;20924;-71
2022/05/08 07:45:35;;;;;;;20.03;15.23;;;18.40;99.90;;;;;;5031898;28;20453;-71
2022/05/08 07:48:03;;;;;;;20.70;14.80;;;18.30;99.90;;;;;;5029583;28;20932;-72
2022/05/08 07:50:30;;;;;;;21.97;15.93;;;18.30;99.90;;;;;;5031220;28;20452;-72
2022/05/08 07:52:57;;;;;;;22.70;14.93;;;18.20;99.90;;;;;;5031510;28;20423;-72
2022/05/08 07:55:23;;;;;;;17.30;14.33;;;18.40;99.90;;;;;;5030699;28;20507;-71
2022/05/08 07:57:50;;;;;;;17.80;14.20;;;18.70;99.90;;;;;;5031697;28;20453;-72
2022/05/08 08:00:17;;;;;;;21.27;14.03;;;18.80;99.90;;;;;;5013437;28;20479;-71
2022/05/08 08:02:44;;;;;;;19.45;14.38;;;19.00;99.90;;;;;;5028914;28;20482;-71
2022/05/08 08:05:12;;;;;;;18.93;14.60;;;19.10;99.90;;;;;;5030670;28;20211;-72
2022/05/08 08:07:39;;;;;;;16.80;13.27;;;19.30;99.90;;;;;;5041219;28;20476;-71
2022/05/08 08:10:07;;;;;;;20.00;14.20;;;19.20;99.90;;;;;;5039757;28;20829;-71
2022/05/08 08:12:33;;;;;;;17.63;12.83;;;19.20;99.90;;;;;;5038183;28;21070;-72
2022/05/08 08:15:00;;;;;;;17.47;12.40;;;19.10;99.90;;;;;;5037152;28;20457;-72
2022/05/08 08:17:28;;;;;;;18.43;13.37;;;19.40;99.90;;;;;;5049249;28;20994;-72
2022/05/08 08:19:54;;;;;;;19.57;13.40;;;19.80;99.90;;;;;;5045894;28;20441;-72
2022/05/08 08:22:23;;;;;;;18.03;13.07;;;20.20;99.90;;;;;;5031402;28;20503;-72
2022/05/08 08:24:49;;;;;;;16.20;13.40;;;20.20;99.90;;;;;;5030483;28;20867;-73
2022/05/08 08:27:18;;;;;;;17.27;13.40;;;20.30;99.90;;;;;;5038567;28;20869;-73
2022/05/08 08:29:45;;;;;;;13.67;11.73;;;20.20;99.90;;;;;;5031079;28;20457;-79
2022/05/08 08:32:12;;;;;;;16.60;13.00;;;20.20;99.90;;;;;;5032204;28;20539;-78
2022/05/08 08:34:38;;;;;;;15.03;12.60;;;20.40;99.90;;;;;;5030403;28;20453;-74
2022/05/08 08:37:05;;;;;;;15.50;11.80;;;20.50;99.90;;;;;;5031601;28;20772;-77
2022/05/08 08:39:33;;;;;;;17.83;13.60;;;20.80;99.90;;;;;;5031423;28;20484;-75
2022/05/08 08:42:08;;;;;;;16.63;12.20;;;20.60;99.90;;;;;;5027883;28;20509;-73
2022/05/08 08:50:05;;;;;;;17.00;12.70;;;20.70;99.90;;;;;;5011106;28;20439;-73
2022/05/08 08:52:32;;;;;;;16.43;13.03;;;20.70;99.90;;;;;;5009311;28;20556;-73
2022/05/08 08:55:00;;;;;;;18.50;11.90;;;20.80;99.90;;;;;;5009625;28;20461;-72
2022/05/08 08:57:27;;;;;;;18.00;12.97;;;20.50;99.90;;;;;;5010289;28;20458;-72
2022/05/08 08:59:53;;;;;;;17.03;12.40;;;20.40;99.90;;;;;;5010269;28;20450;-72
2022/05/08 09:02:21;;;;;;;18.77;14.10;;;20.10;99.90;;;;;;5024894;28;20466;-73
2022/05/08 09:04:50;;;;;;;15.83;13.00;;;20.30;99.90;;;;;;5029725;28;20453;-72
2022/05/08 09:07:36;;;;;;;16.73;12.53;;;20.50;99.90;;;;;;5029741;28;20938;-73
2022/05/08 09:10:12;;;;;;;16.80;12.07;;;20.50;99.90;;;;;;5029835;28;20453;-73
2022/05/08 09:12:41;;;;;;;16.33;11.83;;;20.60;99.90;;;;;;5029101;28;20481;-73
2022/05/08 09:15:25;;;;;;;16.90;12.47;;;20.70;99.90;;;;;;5027579;28;20479;-74
2022/05/08 09:17:54;;;;;;;19.10;11.53;;;20.80;99.90;;;;;;5029469;28;20494;-73
2022/05/08 09:20:30;;;;;;;17.17;11.10;;;20.90;99.90;;;;;;5029996;28;20576;-73
2022/05/08 09:23:05;;;;;;;14.20;10.83;;;20.90;99.90;;;;;;5029742;28;20971;-73
2022/05/08 09:25:55;;;;;;;16.73;10.80;;;21.10;99.90;;;;;;5028851;28;21085;-74
2022/05/08 09:28:25;;;;;;;13.77;10.90;;;21.30;99.90;;;;;;5010421;28;20446;-73
2022/05/08 09:31:04;;;;;;;18.43;11.03;;;21.20;99.90;;;;;;5010773;28;20466;-72
2022/05/08 09:33:33;;;;;;;16.33;11.10;;;21.10;99.90;;;;;;5009727;28;20454;-73
2022/05/08 09:36:01;;;;;;;12.57;10.10;;;21.30;99.90;;;;;;5021431;28;20454;-75
2022/05/08 09:38:41;;;;;;;14.43;11.13;;;21.60;99.90;;;;;;5028798;28;20511;-73
2022/05/08 09:41:10;;;;;;;19.20;11.73;;;21.80;99.90;;;;;;5023497;28;20475;-75
2022/05/08 09:43:37;;;;;;;15.03;10.70;;;21.90;99.90;;;;;;5017296;28;20470;-75
2022/05/08 09:46:06;;;;;;;14.50;10.63;;;22.10;99.90;;;;;;5014013;28;20465;-74
2022/05/08 09:48:34;;;;;;;18.83;12.00;;;22.00;99.90;;;;;;5013732;28;20489;-74
2022/05/08 09:51:02;;;;;;;17.63;11.30;;;22.20;99.90;;;;;;5013642;28;20978;-74
2022/05/08 09:53:29;;;;;;;13.73;9.93;;;22.30;99.90;;;;;;5012992;28;20935;-75
2022/05/08 09:55:57;;;;;;;17.83;10.67;;;22.20;99.90;;;;;;5013781;28;20450;-74
2022/05/08 09:58:26;;;;;;;20.60;12.20;;;22.00;99.90;;;;;;5027224;28;20449;-74
2022/05/08 10:00:54;;;;;;;19.67;10.37;;;22.30;99.90;;;;;;5033297;28;20811;-76
2022/05/08 10:03:21;;;;;;;25.77;17.50;;;22.40;99.90;;;;;;5032878;28;20473;-75
2022/05/08 10:05:49;;;;;;;16.70;10.90;;;22.70;99.90;;;;;;5033449;28;20480;-74
2022/05/08 10:08:17;;;;;;;12.67;9.90;;;22.60;99.90;;;;;;5032550;28;20503;-75
2022/05/08 10:14:03;;;;;;;12.97;9.73;;;22.60;99.90;;;;;;5018389;28;20484;-70
2022/05/08 10:16:49;;;;;;;14.50;11.37;;;22.60;99.90;;;;;;5032609;28;20950;-70
2022/05/08 10:19:43;;;;;;;15.00;10.97;;;22.30;99.90;;;;;;5032803;28;20510;-70
2022/05/08 10:22:12;;;;;;;11.33;9.00;;;22.50;99.90;;;;;;5012856;28;20474;-70
2022/05/08 10:24:41;;;;;;;13.60;9.73;;;22.60;99.90;;;;;;5010437;28;20458;-69
2022/05/08 10:27:13;;;;;;;17.20;10.30;;;22.80;99.90;;;;;;5033676;28;20502;-71
2022/05/08 10:29:41;;;;;;;14.10;10.13;;;23.00;99.90;;;;;;5012063;28;20866;-69
2022/05/08 10:32:10;;;;;;;14.90;8.43;;;23.00;99.90;;;;;;5012517;28;20489;-70
2022/05/08 10:34:39;;;;;;;11.40;8.50;;;23.00;99.90;;;;;;5011719;28;20456;-71
2022/05/08 10:37:37;;;;;;;11.73;9.67;;;23.40;99.90;;;;;;5013419;28;20994;-75
2022/05/08 10:40:05;;;;;;;15.00;9.87;;;23.20;99.90;;;;;;4932813;29;20449;-72
2022/05/08 10:42:45;;;;;;;13.50;9.63;;;23.20;99.90;;;;;;4996875;28;20465;-74
2022/05/08 10:45:42;;;;;;;18.57;9.03;;;23.20;99.90;;;;;;5032470;28;20495;-76
2022/05/08 10:48:16;;;;;;;15.67;12.53;;;23.00;99.90;;;;;;5024826;28;20484;-72
2022/05/08 10:50:44;;;;;;;17.67;11.87;;;23.00;99.90;;;;;;5032500;28;20547;-74
2022/05/08 10:53:22;;;;;;;14.07;8.98;;;23.20;99.90;;;;;;5030712;28;20940;-72
2022/05/08 10:55:49;;;;;;;15.50;11.70;;;23.50;99.90;;;;;;5032548;28;20719;-72
2022/05/08 10:58:16;;;;;;;28.93;14.00;;;23.50;99.90;;;;;;5031916;28;20461;-73
2022/05/08 11:00:44;;;;;;;19.10;9.10;;;23.30;99.90;;;;;;5032360;28;20453;-71
2022/05/08 11:03:11;;;;;;;9.90;7.60;;;23.60;99.90;;;;;;5031993;28;20445;-68
2022/05/08 11:05:39;;;;;;;10.38;7.20;;;23.50;99.90;;;;;;5030415;28;20545;-70
2022/05/08 11:08:08;;;;;;;12.60;7.80;;;23.50;99.90;;;;;;5032786;28;20269;-70
2022/05/08 11:10:37;;;;;;;10.93;9.30;;;23.40;99.90;;;;;;5032134;28;20568;-76
2022/05/08 11:13:05;;;;;;;16.93;9.67;;;23.80;99.90;;;;;;5030477;28;20996;-74
2022/05/08 11:15:33;;;;;;;13.73;8.33;;;24.20;99.90;;;;;;5012481;28;20557;-73
2022/05/08 11:18:07;;;;;;;13.60;8.60;;;24.60;99.90;;;;;;5012508;28;20454;-75
2022/05/08 11:20:37;;;;;;;9.67;8.67;;;24.80;99.90;;;;;;5022946;28;20560;-75
2022/05/08 11:23:04;;;;;;;14.63;7.63;;;25.00;99.90;;;;;;5032702;28;20540;-76
2022/05/08 11:25:31;;;;;;;9.10;6.97;;;24.90;99.90;;;;;;5032508;28;20541;-76
2022/05/08 11:27:58;;;;;;;10.87;7.00;;;24.20;99.90;;;;;;5029612;28;20520;-76
2022/05/08 11:30:32;;;;;;;8.53;6.83;;;24.40;99.90;;;;;;5013703;28;20475;-74
2022/05/08 11:36:05;;;;;;;12.20;7.80;;;24.20;99.90;;;;;;5021827;28;20447;-74
2022/05/08 11:38:40;;;;;;;9.93;7.67;;;24.00;99.90;;;;;;5033200;28;20457;-78
2022/05/08 11:41:08;;;;;;;8.47;6.80;;;23.80;99.90;;;;;;5033134;28;20572;-75
2022/05/08 11:43:43;;;;;;;11.43;8.27;;;23.90;99.90;;;;;;5031574;28;20816;-75
2022/05/08 11:46:13;;;;;;;16.60;8.50;;;23.30;99.90;;;;;;5017813;28;20512;-76
2022/05/08 11:48:43;;;;;;;11.43;8.83;;;23.50;99.90;;;;;;5031718;28;20454;-75
2022/05/08 11:51:11;;;;;;;9.37;8.23;;;23.50;99.90;;;;;;5032013;28;20477;-76
2022/05/08 11:53:39;;;;;;;10.57;8.40;;;23.70;99.90;;;;;;5031387;28;21009;-77
2022/05/08 11:56:21;;;;;;;15.57;8.15;;;23.80;99.90;;;;;;5031015;28;20544;-76
2022/05/08 11:58:48;;;;;;;10.33;8.60;;;23.70;99.90;;;;;;5027632;28;20313;-76
2022/05/08 12:01:22;;;;;;;16.43;8.53;;;23.70;99.90;;;;;;5011976;28;20470;-75
2022/05/08 12:03:49;;;;;;;10.27;8.77;;;23.80;99.90;;;;;;5013741;28;20445;-75
2022/05/08 12:06:17;;;;;;;12.70;10.13;;;23.80;99.90;;;;;;5016756;28;20866;-75
2022/05/08 12:08:43;;;;;;;9.95;7.00;;;23.50;99.90;;;;;;5011094;28;20874;-74
2022/05/08 12:11:29;;;;;;;11.80;8.40;;;23.40;99.90;;;;;;5011371;28;20789;-74
2022/05/08 12:14:08;;;;;;;8.20;7.37;;;23.70;99.90;;;;;;5021074;28;20489;-72
2022/05/08 12:16:36;;;;;;;10.77;8.43;;;23.80;99.90;;;;;;5031208;28;20659;-76
2022/05/08 12:19:11;;;;;;;15.77;8.10;;;23.90;99.90;;;;;;5035292;28;20484;-80
2022/05/08 12:21:39;;;;;;;10.67;7.77;;;23.80;99.90;;;;;;5033769;28;21058;-79
2022/05/08 12:24:10;;;;;;;9.70;6.67;;;23.90;99.90;;;;;;5029651;28;20527;-75
2022/05/08 12:26:37;;;;;;;11.80;5.87;;;23.90;99.90;;;;;;5039265;28;20526;-75
2022/05/08 12:29:06;;;;;;;8.37;7.33;;;23.90;99.90;;;;;;5053004;28;20445;-77
2022/05/08 12:31:33;;;;;;;13.50;7.23;;;23.80;99.90;;;;;;5024104;28;21005;-76
2022/05/08 12:34:00;;;;;;;9.23;6.60;;;23.90;99.90;;;;;;5011725;28;20639;-76
2022/05/08 12:36:27;;;;;;;8.40;6.30;;;23.80;99.90;;;;;;5027349;28;20453;-77
2022/05/08 12:38:55;;;;;;;11.83;6.63;;;23.70;99.90;;;;;;5031261;28;20510;-77
2022/05/08 12:41:22;;;;;;;10.10;6.30;;;23.80;99.90;;;;;;5031365;28;20503;-78
2022/05/08 12:43:48;;;;;;;11.70;6.00;;;23.90;99.90;;;;;;5031171;28;20897;-75
2022/05/08 12:46:15;;;;;;;7.53;6.70;;;23.90;99.90;;;;;;5024415;28;20451;-76
2022/05/08 12:48:42;;;;;;;9.77;7.73;;;24.10;99.90;;;;;;5012379;28;20516;-74
2022/05/08 12:51:09;;;;;;;8.80;6.10;;;23.70;99.90;;;;;;5021282;28;20568;-74
2022/05/08 12:53:36;;;;;;;10.43;6.93;;;23.90;99.90;;;;;;5030232;28;20484;-73
2022/05/08 12:56:04;;;;;;;11.13;6.53;;;24.00;99.90;;;;;;5033272;28;20465;-75
2022/05/08 13:01:15;;;;;;;13.03;6.70;;;23.90;99.90;;;;;;5032016;28;20447;-75
2022/05/08 13:03:42;;;;;;;11.00;5.73;;;23.70;99.90;;;;;;5018949;28;20450;-77
2022/05/08 13:06:08;;;;;;;7.70;6.20;;;23.80;99.90;;;;;;5028056;28;20557;-76
2022/05/08 13:08:36;;;;;;;8.60;5.97;;;23.60;99.90;;;;;;5031083;28;20538;-76
2022/05/08 13:11:04;;;;;;;6.80;5.70;;;23.80;99.90;;;;;;5031047;28;20477;-75